createdAt,value
2023-02-11T00:02:01.484Z,32.70
2023-02-11T00:04:30.035Z,33.80
2023-02-11T00:06:58.359Z,31.00
2023-02-11T00:09:31.909Z,33.30
2023-02-11T00:14:28.782Z,32.70
2023-02-11T00:16:57.815Z,34.80
2023-02-11T00:19:26.288Z,34.00
2023-02-11T00:21:54.847Z,31.80
2023-02-11T00:24:23.241Z,39.70
2023-02-11T00:26:51.611Z,32.40
2023-02-11T00:29:20.331Z,33.20
2023-02-11T00:31:48.799Z,34.30
2023-02-11T00:34:17.265Z,32.40
2023-02-11T00:36:45.670Z,31.00
2023-02-11T00:39:16.404Z,32.80
2023-02-11T00:41:45.073Z,33.40
2023-02-11T00:44:14.373Z,32.60
2023-02-11T00:46:42.856Z,33.70
2023-02-11T00:49:12.057Z,29.50
2023-02-11T00:51:41.360Z,35.60
2023-02-11T00:54:09.742Z,34.10
2023-02-11T00:56:38.738Z,30.20
2023-02-11T00:59:07.229Z,34.70
2023-02-11T01:01:35.865Z,32.20
2023-02-11T01:04:05.318Z,29.80
2023-02-11T01:06:33.700Z,35.00
2023-02-11T01:09:02.183Z,34.30
2023-02-11T01:11:34.566Z,36.60
2023-02-11T01:14:03.590Z,37.90
2023-02-11T01:16:32.150Z,40.50
2023-02-11T01:19:00.839Z,34.40
2023-02-11T01:21:29.833Z,28.90
2023-02-11T01:23:58.217Z,37.90
2023-02-11T01:26:26.699Z,37.90
2023-02-11T01:28:55.492Z,40.20
2023-02-11T01:31:23.930Z,39.90
2023-02-11T01:33:52.868Z,38.50
2023-02-11T01:36:22.784Z,38.80
2023-02-11T01:38:51.376Z,36.30
2023-02-11T01:41:22.107Z,41.90
2023-02-11T01:43:50.798Z,43.40
2023-02-11T01:46:33.246Z,39.00
2023-02-11T01:49:09.080Z,39.10
2023-02-11T01:52:02.331Z,42.20
2023-02-11T01:54:51.909Z,36.60
2023-02-11T01:57:22.289Z,41.50
2023-02-11T02:00:06.898Z,40.50
2023-02-11T02:02:55.354Z,38.90
2023-02-11T02:05:40.629Z,36.50
2023-02-11T02:08:17.617Z,43.40
2023-02-11T02:10:48.014Z,43.70
2023-02-11T02:13:18.891Z,40.30
2023-02-11T02:16:00.193Z,41.80
2023-02-11T02:18:35.097Z,38.10
2023-02-11T02:21:22.133Z,43.60
2023-02-11T02:24:08.929Z,41.60
2023-02-11T02:26:46.534Z,43.80
2023-02-11T02:29:30.077Z,39.60
2023-02-11T02:32:26.605Z,43.70
2023-02-11T02:35:20.900Z,45.70
2023-02-11T02:37:58.084Z,43.30
2023-02-11T02:40:37.525Z,39.70
2023-02-11T02:43:06.077Z,46.70
2023-02-11T02:45:34.499Z,41.90
2023-02-11T02:48:03.206Z,45.60
2023-02-11T02:50:36.484Z,42.20
2023-02-11T02:53:27.804Z,42.70
2023-02-11T02:56:01.406Z,41.30
2023-02-11T02:58:48.477Z,50.10
2023-02-11T03:01:39.334Z,39.90
2023-02-11T03:04:19.696Z,45.70
2023-02-11T03:06:48.285Z,44.10
2023-02-11T03:09:24.431Z,43.30
2023-02-11T03:11:53.035Z,46.30
2023-02-11T03:14:21.518Z,42.40
2023-02-11T03:16:50.719Z,45.30
2023-02-11T03:19:27.586Z,42.30
2023-02-11T03:21:56.392Z,39.20
2023-02-11T03:24:33.681Z,47.90
2023-02-11T03:27:07.797Z,45.40
2023-02-11T03:29:39.762Z,46.20
2023-02-11T03:32:16.489Z,43.60
2023-02-11T03:34:58.545Z,40.50
2023-02-11T03:37:51.797Z,42.50
2023-02-11T03:40:29.200Z,40.00
2023-02-11T03:43:03.830Z,40.10
2023-02-11T03:45:32.996Z,43.00
2023-02-11T03:48:04.690Z,40.30
2023-02-11T03:50:33.377Z,43.80
2023-02-11T03:53:02.378Z,37.70
2023-02-11T03:55:30.754Z,41.90
2023-02-11T03:57:59.344Z,41.20
2023-02-11T04:00:39.944Z,41.10
2023-02-11T04:03:08.958Z,45.90
2023-02-11T04:05:37.696Z,41.70
2023-02-11T04:08:06.082Z,42.30
2023-02-11T04:10:35.381Z,30.70
2023-02-11T04:13:04.277Z,40.70
2023-02-11T04:15:33.276Z,41.50
2023-02-11T04:18:03.501Z,38.80
2023-02-11T04:20:31.773Z,39.80
2023-02-11T04:23:00.258Z,39.10
2023-02-11T04:25:29.458Z,44.80
2023-02-11T04:27:57.996Z,44.30
2023-02-11T04:30:26.327Z,40.80
2023-02-11T04:32:54.791Z,43.20
2023-02-11T04:35:23.398Z,40.40
2023-02-11T04:37:51.781Z,35.80
2023-02-11T04:40:20.265Z,38.70
2023-02-11T04:42:48.658Z,39.90
2023-02-11T04:45:17.436Z,36.60
2023-02-11T04:47:45.818Z,34.30
2023-02-11T04:50:14.626Z,38.10
2023-02-11T04:52:43.214Z,38.30
2023-02-11T04:55:11.891Z,37.60
2023-02-11T04:57:40.677Z,27.70
2023-02-11T05:00:10.301Z,35.20
2023-02-11T05:05:07.811Z,36.90
2023-02-11T05:07:36.354Z,29.70
2023-02-11T05:10:05.048Z,37.20
2023-02-11T05:12:34.055Z,35.80
2023-02-11T05:15:02.544Z,42.30
2023-02-11T05:17:31.523Z,36.70
2023-02-11T05:19:59.901Z,35.40
2023-02-11T05:22:28.588Z,38.70
2023-02-11T05:24:57.072Z,40.00
2023-02-11T05:27:25.454Z,37.90
2023-02-11T05:29:53.941Z,33.50
2023-02-11T05:32:22.326Z,37.80
2023-02-11T05:34:50.702Z,35.90
2023-02-11T05:37:20.807Z,38.10
2023-02-11T05:39:49.929Z,40.10
2023-02-11T05:42:18.820Z,27.90
2023-02-11T05:44:49.049Z,38.20
2023-02-11T05:47:21.416Z,38.80
2023-02-11T05:49:50.309Z,41.20
2023-02-11T05:52:18.691Z,36.10
2023-02-11T05:54:47.284Z,34.70
2023-02-11T05:57:16.074Z,37.40
2023-02-11T05:59:44.456Z,33.30
2023-02-11T06:02:14.005Z,32.80
2023-02-11T06:04:44.408Z,34.40
2023-02-11T06:07:15.228Z,31.30
2023-02-11T06:09:43.711Z,33.90
2023-02-11T06:12:12.606Z,33.00
2023-02-11T06:14:42.730Z,38.30
2023-02-11T06:17:12.401Z,35.10
2023-02-11T06:19:44.829Z,36.30
2023-02-11T06:22:13.197Z,35.20
2023-02-11T06:24:54.978Z,31.10
2023-02-11T06:27:30.032Z,38.10
2023-02-11T06:29:58.460Z,35.80
2023-02-11T06:32:45.725Z,35.00
2023-02-11T06:35:14.983Z,33.00
2023-02-11T06:37:45.373Z,32.70
2023-02-11T06:40:14.494Z,42.20
2023-02-11T06:42:43.977Z,37.70
2023-02-11T06:45:13.604Z,36.40
2023-02-11T06:47:42.796Z,34.00
2023-02-11T06:50:12.634Z,36.50
2023-02-11T06:52:41.599Z,39.10
2023-02-11T06:55:10.089Z,41.60
2023-02-11T06:57:39.086Z,39.10
2023-02-11T07:01:07.062Z,39.20
2023-02-11T07:03:36.567Z,46.10
2023-02-11T07:06:08.433Z,46.30
2023-02-11T07:08:37.318Z,49.20
2023-02-11T07:11:13.804Z,45.10
2023-02-11T07:13:42.384Z,46.40
2023-02-11T07:16:13.046Z,41.10
2023-02-11T07:18:42.223Z,40.60
2023-02-11T07:21:12.170Z,46.50
2023-02-11T07:23:41.439Z,44.60
2023-02-11T07:26:13.307Z,44.80
2023-02-11T07:28:42.001Z,44.20
2023-02-11T07:31:12.521Z,48.50
2023-02-11T07:33:41.010Z,50.70
2023-02-11T07:36:10.545Z,62.40
2023-02-11T07:38:38.995Z,56.20
2023-02-11T07:41:12.192Z,45.40
2023-02-11T07:43:41.186Z,44.60
2023-02-11T07:46:15.034Z,47.60
2023-02-11T07:48:43.576Z,47.80
2023-02-11T07:51:14.013Z,45.20
2023-02-11T07:53:42.694Z,46.90
2023-02-11T07:56:12.140Z,48.10
2023-02-11T07:58:42.533Z,45.00
2023-02-11T08:01:13.271Z,51.00
2023-02-11T08:03:43.103Z,46.20
2023-02-11T08:08:42.226Z,45.90
2023-02-11T08:11:12.668Z,50.80
2023-02-11T08:13:41.521Z,46.40
2023-02-11T08:16:26.425Z,50.30
2023-02-11T08:18:57.559Z,52.00
2023-02-11T08:21:27.245Z,52.30
2023-02-11T08:23:56.241Z,45.70
2023-02-11T08:26:29.457Z,44.40
2023-02-11T08:28:58.233Z,49.50
2023-02-11T08:31:28.628Z,50.60
2023-02-11T08:33:58.467Z,53.60
2023-02-11T08:36:29.307Z,51.70
2023-02-11T08:39:18.161Z,49.70
2023-02-11T08:41:57.085Z,44.70
2023-02-11T08:44:25.462Z,43.20
2023-02-11T08:46:54.084Z,47.70
2023-02-11T08:49:22.489Z,45.30
2023-02-11T08:51:51.455Z,48.20
2023-02-11T08:54:21.031Z,48.90
2023-02-11T08:56:51.388Z,47.60
2023-02-11T08:59:19.942Z,44.60
2023-02-11T09:01:49.204Z,49.00
2023-02-11T09:04:17.627Z,43.30
2023-02-11T09:06:47.418Z,41.20
2023-02-11T09:11:45.850Z,35.60
2023-02-11T09:14:18.621Z,44.20
2023-02-11T09:16:47.026Z,44.70
2023-02-11T09:19:17.845Z,44.10
2023-02-11T09:21:46.424Z,45.80
2023-02-11T09:24:15.109Z,45.50
2023-02-11T09:26:43.936Z,49.60
2023-02-11T09:29:12.500Z,43.00
2023-02-11T09:31:41.382Z,48.00
2023-02-11T09:34:11.215Z,46.50
2023-02-11T09:39:12.455Z,47.30
2023-02-11T09:41:50.976Z,43.10
2023-02-11T09:44:24.253Z,51.90
2023-02-11T09:47:01.150Z,48.70
2023-02-11T09:50:00.454Z,44.40
2023-02-11T09:52:48.095Z,47.80
2023-02-11T09:55:30.293Z,50.20
2023-02-11T09:57:58.881Z,45.20
2023-02-11T10:00:38.315Z,43.10
2023-02-11T10:03:44.796Z,46.90
2023-02-11T10:06:16.144Z,46.90
2023-02-11T10:08:59.374Z,45.60
2023-02-11T10:11:32.647Z,45.90
2023-02-11T10:14:16.616Z,48.60
2023-02-11T10:17:13.263Z,47.10
2023-02-11T10:20:01.914Z,46.10
2023-02-11T10:22:37.053Z,34.20
2023-02-11T10:25:24.379Z,49.20
2023-02-11T10:27:55.723Z,45.90
2023-02-11T10:30:46.914Z,50.50
2023-02-11T10:33:18.396Z,44.00
2023-02-11T10:35:47.804Z,47.10
2023-02-11T10:38:16.283Z,49.60
2023-02-11T10:40:44.765Z,43.00
2023-02-11T10:43:16.556Z,41.50
2023-02-11T10:45:48.395Z,45.60
2023-02-11T10:48:43.829Z,46.50
2023-02-11T10:51:34.540Z,45.50
2023-02-11T10:54:08.430Z,48.80
2023-02-11T10:56:38.269Z,45.10
2023-02-11T10:59:31.001Z,46.40
2023-02-11T11:02:06.316Z,50.40
2023-02-11T11:04:37.062Z,45.90
2023-02-11T11:07:28.297Z,47.40
2023-02-11T11:09:59.439Z,50.50
2023-02-11T11:12:35.622Z,48.60
2023-02-11T11:15:10.833Z,52.00
2023-02-11T11:17:45.630Z,45.70
2023-02-11T11:20:14.585Z,47.70
2023-02-11T11:22:43.252Z,45.20
2023-02-11T11:25:28.406Z,49.20
2023-02-11T11:27:58.343Z,42.50
2023-02-11T11:30:33.564Z,45.80
2023-02-11T11:33:02.379Z,45.60
2023-02-11T11:35:33.319Z,43.60
2023-02-11T11:38:04.269Z,45.30
2023-02-11T11:40:36.222Z,48.00
2023-02-11T11:43:14.443Z,40.10
2023-02-11T11:45:59.000Z,43.80
2023-02-11T11:48:33.220Z,39.50
2023-02-11T11:51:02.642Z,41.20
2023-02-11T11:53:56.335Z,44.90
2023-02-11T11:56:26.956Z,44.30
2023-02-11T11:58:56.025Z,43.30
2023-02-11T12:01:41.355Z,42.50
2023-02-11T12:04:28.529Z,42.70
2023-02-11T12:07:16.779Z,41.70
2023-02-11T12:10:22.543Z,40.80
2023-02-11T12:13:17.852Z,39.20
2023-02-11T12:15:52.174Z,37.50
2023-02-11T12:18:58.543Z,42.30
2023-02-11T12:21:51.090Z,34.90
2023-02-11T12:24:42.512Z,37.10
2023-02-11T12:27:43.254Z,41.80
2023-02-11T12:30:11.841Z,35.90
2023-02-11T12:33:02.957Z,33.40
2023-02-11T12:35:38.739Z,36.80
2023-02-11T12:38:21.636Z,34.70
2023-02-11T12:41:14.798Z,32.20
2023-02-11T12:43:44.151Z,32.70
2023-02-11T12:46:35.329Z,26.90
2023-02-11T12:49:41.796Z,29.00
2023-02-11T12:52:29.220Z,26.80
2023-02-11T12:55:00.884Z,29.10
2023-02-11T12:57:32.345Z,30.80
2023-02-11T13:00:22.836Z,24.10
2023-02-11T13:03:01.885Z,23.60
2023-02-11T13:05:50.023Z,25.40
2023-02-11T13:08:23.926Z,23.60
2023-02-11T13:10:57.133Z,23.30
2023-02-11T13:13:34.007Z,21.20
2023-02-11T13:16:08.152Z,17.50
2023-02-11T13:18:48.584Z,19.70
2023-02-11T13:21:18.000Z,16.80
2023-02-11T13:23:48.315Z,19.60
2023-02-11T13:26:30.204Z,17.30
2023-02-11T13:29:23.274Z,17.40
2023-02-11T13:31:56.055Z,17.80
2023-02-11T13:34:44.135Z,16.40
2023-02-11T13:37:23.533Z,17.10
2023-02-11T13:40:01.568Z,17.70
2023-02-11T13:42:30.550Z,15.90
2023-02-11T13:44:58.943Z,14.10
2023-02-11T13:47:34.066Z,17.20
2023-02-11T13:50:04.379Z,17.60
2023-02-11T13:52:37.504Z,17.50
2023-02-11T13:55:14.984Z,15.10
2023-02-11T13:57:43.770Z,16.30
2023-02-11T14:00:34.476Z,18.50
2023-02-11T14:03:31.042Z,21.50
2023-02-11T14:06:27.711Z,17.60
2023-02-11T14:09:14.681Z,17.30
2023-02-11T14:11:51.970Z,18.50
2023-02-11T14:14:22.093Z,17.40
2023-02-11T14:16:59.971Z,16.40
2023-02-11T14:19:38.525Z,17.50
2023-02-11T14:22:13.750Z,19.50
2023-02-11T14:24:59.590Z,20.90
2023-02-11T14:27:41.961Z,21.90
2023-02-11T14:30:29.105Z,22.10
2023-02-11T14:33:19.889Z,23.00
2023-02-11T14:36:04.039Z,22.00
2023-02-11T14:38:59.046Z,21.50
2023-02-11T14:41:42.718Z,20.30
2023-02-11T14:44:15.266Z,22.50
2023-02-11T14:46:46.399Z,22.70
2023-02-11T14:49:33.120Z,26.00
2023-02-11T14:52:22.503Z,21.30
2023-02-11T14:54:51.190Z,23.50
2023-02-11T14:57:20.569Z,24.20
2023-02-11T14:59:59.240Z,25.80
2023-02-11T15:02:34.249Z,23.60
2023-02-11T15:05:29.249Z,24.70
2023-02-11T15:07:59.731Z,28.80
2023-02-11T15:10:32.257Z,27.60
2023-02-11T15:13:01.459Z,28.00
2023-02-11T15:15:30.866Z,28.80
2023-02-11T15:18:01.290Z,23.50
2023-02-11T15:20:32.045Z,27.30
2023-02-11T15:23:02.866Z,30.50
2023-02-11T15:25:34.044Z,29.80
2023-02-11T15:28:21.654Z,29.60
2023-02-11T15:31:00.745Z,30.90
2023-02-11T15:33:32.901Z,28.90
2023-02-11T15:36:02.048Z,31.50
2023-02-11T15:38:30.949Z,32.70
2023-02-11T15:41:03.216Z,35.50
2023-02-11T15:43:45.321Z,33.60
2023-02-11T15:46:23.606Z,33.60
2023-02-11T15:48:53.239Z,31.70
2023-02-11T15:51:22.869Z,30.20
2023-02-11T15:54:02.284Z,31.10
2023-02-11T15:56:44.504Z,32.00
2023-02-11T15:59:21.370Z,32.30
2023-02-11T16:01:49.875Z,36.40
2023-02-11T16:04:23.913Z,30.90
2023-02-11T16:06:53.406Z,32.00
2023-02-11T16:09:26.983Z,36.20
2023-02-11T16:11:59.031Z,33.30
2023-02-11T16:14:27.423Z,32.00
2023-02-11T16:17:22.632Z,32.20
2023-02-11T16:19:51.222Z,28.70
2023-02-11T16:22:30.265Z,29.10
2023-02-11T16:24:59.464Z,22.70
2023-02-11T16:27:37.662Z,29.70
2023-02-11T16:30:07.377Z,27.50
2023-02-11T16:32:35.756Z,26.80
2023-02-11T16:35:09.159Z,27.50
2023-02-11T16:37:38.248Z,28.60
2023-02-11T16:40:07.687Z,29.00
2023-02-11T16:42:36.241Z,27.40
2023-02-11T16:45:05.439Z,28.80
2023-02-11T16:47:34.682Z,29.40
2023-02-11T16:50:03.122Z,29.30
2023-02-11T16:52:32.012Z,24.90
2023-02-11T16:57:30.496Z,29.60
2023-02-11T16:59:59.616Z,25.70
2023-02-11T17:02:35.091Z,28.80
2023-02-11T17:05:05.591Z,25.60
2023-02-11T17:07:35.608Z,25.60
2023-02-11T17:10:07.387Z,26.40
2023-02-11T17:12:36.059Z,26.40
2023-02-11T17:15:07.280Z,24.80
2023-02-11T17:17:37.527Z,28.00
2023-02-11T17:20:07.377Z,27.90
2023-02-11T17:22:35.721Z,27.40
2023-02-11T17:25:04.409Z,27.00
2023-02-11T17:27:33.142Z,27.70
2023-02-11T17:30:01.476Z,24.10
2023-02-11T17:32:29.915Z,27.00
2023-02-11T17:37:28.972Z,27.60
2023-02-11T17:39:57.660Z,27.70
2023-02-11T17:42:27.066Z,26.20
2023-02-11T17:44:55.448Z,27.20
2023-02-11T17:47:24.885Z,27.20
2023-02-11T17:49:53.231Z,25.20
2023-02-11T17:52:24.495Z,25.80
2023-02-11T17:54:53.270Z,27.50
2023-02-11T17:57:21.855Z,28.00
2023-02-11T17:59:50.242Z,30.00
2023-02-11T18:02:18.927Z,26.40
2023-02-11T18:04:49.268Z,30.80
2023-02-11T18:07:18.963Z,29.70
2023-02-11T18:09:49.392Z,29.90
2023-02-11T18:12:25.453Z,30.50
2023-02-11T18:14:57.535Z,27.50
2023-02-11T18:17:27.044Z,29.00
2023-02-11T18:19:57.071Z,29.10
2023-02-11T18:22:25.528Z,23.60
2023-02-11T18:24:54.727Z,27.60
2023-02-11T18:29:52.447Z,32.00
2023-02-11T18:32:21.204Z,25.80
2023-02-11T18:34:49.790Z,26.70
2023-02-11T18:37:20.632Z,28.20
2023-02-11T18:39:49.130Z,29.60
2023-02-11T18:42:17.494Z,27.80
2023-02-11T18:44:46.214Z,28.80
2023-02-11T18:47:14.461Z,31.80
2023-02-11T18:49:42.849Z,35.30
2023-02-11T18:52:11.429Z,31.00
2023-02-11T18:54:41.039Z,32.00
2023-02-11T18:57:09.623Z,28.60
2023-02-11T19:02:09.642Z,34.00
2023-02-11T19:04:38.628Z,32.10
2023-02-11T19:07:07.042Z,31.30
2023-02-11T19:09:35.730Z,32.10
2023-02-11T19:12:04.940Z,30.40
2023-02-11T19:14:34.422Z,30.90
2023-02-11T19:18:47.774Z,35.90
2023-02-11T19:21:16.159Z,28.30
2023-02-11T19:23:44.537Z,31.20
2023-02-11T19:26:13.120Z,32.20
2023-02-11T19:28:41.707Z,30.20
2023-02-11T19:31:10.358Z,32.40
2023-02-11T19:33:40.002Z,30.80
2023-02-11T19:36:09.716Z,31.70
2023-02-11T19:38:38.403Z,34.60
2023-02-11T19:41:06.786Z,32.20
2023-02-11T19:43:35.165Z,33.50
2023-02-11T19:46:04.349Z,31.00
2023-02-11T19:48:32.745Z,31.10
2023-02-11T19:51:12.043Z,29.90
2023-02-11T19:53:42.410Z,35.40
2023-02-11T19:56:11.099Z,30.90
2023-02-11T19:58:40.092Z,32.80
2023-02-11T20:01:19.698Z,34.20
2023-02-11T20:03:51.952Z,32.80
2023-02-11T20:06:23.666Z,32.50
2023-02-11T20:08:59.029Z,35.50
2023-02-11T20:11:29.001Z,34.70
2023-02-11T20:16:44.640Z,37.60
2023-02-11T20:19:18.377Z,34.70
2023-02-11T20:21:48.184Z,33.10
2023-02-11T20:24:17.665Z,32.70
2023-02-11T20:26:48.602Z,34.00
2023-02-11T20:29:18.076Z,36.10
2023-02-11T20:31:46.684Z,34.30
2023-02-11T20:34:17.994Z,26.50
2023-02-11T20:36:52.237Z,35.20
2023-02-11T20:39:22.574Z,34.30
2023-02-11T20:41:51.595Z,33.80
2023-02-11T20:44:22.554Z,26.30
2023-02-11T20:46:52.032Z,34.70
2023-02-11T20:49:22.696Z,36.40
2023-02-11T20:51:52.787Z,32.80
2023-02-11T20:56:51.391Z,33.00
2023-02-11T21:01:56.465Z,39.80
2023-02-11T21:04:28.013Z,37.10
2023-02-11T21:06:58.748Z,33.00
2023-02-11T21:09:29.614Z,35.40
2023-02-11T21:12:03.495Z,35.60
2023-02-11T21:14:34.335Z,31.00
2023-02-11T21:17:02.811Z,31.70
2023-02-11T21:19:31.829Z,34.00
2023-02-11T21:22:02.031Z,34.10
2023-02-11T21:27:07.814Z,36.90
2023-02-11T21:29:52.676Z,35.30
2023-02-11T21:32:22.059Z,36.50
2023-02-11T21:34:50.466Z,34.00
2023-02-11T21:37:18.770Z,37.00
2023-02-11T21:39:47.634Z,32.90
2023-02-11T21:42:16.220Z,32.50
2023-02-11T21:44:44.702Z,34.90
2023-02-11T21:47:13.598Z,35.30
2023-02-11T21:49:43.001Z,31.70
2023-02-11T21:52:12.717Z,33.20
2023-02-11T21:54:40.993Z,35.10
2023-02-11T21:57:09.476Z,37.00
2023-02-11T21:59:37.892Z,30.90
2023-02-11T22:02:06.644Z,33.70
2023-02-11T22:04:35.048Z,32.80
2023-02-11T22:07:03.614Z,37.30
2023-02-11T22:09:34.349Z,30.30
2023-02-11T22:12:02.626Z,31.80
2023-02-11T22:14:32.384Z,31.80
2023-02-11T22:17:01.488Z,33.50
2023-02-11T22:19:30.123Z,31.80
2023-02-11T22:21:59.017Z,29.60
2023-02-11T22:24:27.601Z,31.90
2023-02-11T22:26:56.804Z,33.20
2023-02-11T22:29:25.281Z,33.40
2023-02-11T22:31:53.722Z,33.50
2023-02-11T22:34:22.352Z,32.60
2023-02-11T22:36:52.471Z,33.60
2023-02-11T22:39:21.159Z,33.40
2023-02-11T22:41:49.640Z,31.70
2023-02-11T22:44:18.018Z,31.10
2023-02-11T22:46:46.503Z,31.70
2023-02-11T22:49:16.138Z,31.90
2023-02-11T22:51:44.499Z,28.30
2023-02-11T22:54:15.354Z,31.50
2023-02-11T22:56:43.812Z,27.40
2023-02-11T22:59:14.647Z,27.80
2023-02-11T23:01:43.467Z,30.10
2023-02-11T23:04:13.502Z,31.50
2023-02-11T23:06:41.846Z,29.40
2023-02-11T23:09:14.317Z,28.00
2023-02-11T23:11:43.007Z,26.30
2023-02-11T23:14:12.443Z,26.00
2023-02-11T23:16:42.329Z,25.00
2023-02-11T23:19:11.120Z,23.90
2023-02-11T23:21:39.713Z,26.10
2023-02-11T23:24:14.869Z,25.20
2023-02-11T23:26:43.641Z,23.70
2023-02-11T23:29:12.530Z,19.70
2023-02-11T23:31:44.123Z,22.60
2023-02-11T23:34:17.198Z,24.90
2023-02-11T23:36:45.567Z,24.00
2023-02-11T23:39:15.587Z,23.60
2023-02-11T23:41:45.228Z,20.90
2023-02-11T23:44:13.590Z,23.00
2023-02-11T23:46:42.469Z,24.60
2023-02-11T23:49:11.160Z,21.50
2023-02-11T23:51:39.641Z,20.40
2023-02-11T23:54:08.121Z,22.00
2023-02-11T23:56:39.371Z,20.50
2023-02-11T23:59:08.055Z,21.00
